sensor_id;sensor_type;location;lat;lon;timestamp;temperature;humidity
48328;DHT22;34136;51.022;7.082;2023-05-27T00:01:02;12.90;1.00
48328;DHT22;34136;51.022;7.082;2023-05-27T00:03:49;12.90;1.00
48328;DHT22;34136;51.022;7.082;2023-05-27T00:06:35;12.90;1.00
48328;DHT22;34136;51.022;7.082;2023-05-27T00:09:21;12.90;1.00
48328;DHT22;34136;51.022;7.082;2023-05-27T00:12:07;12.70;1.00
48328;DHT22;34136;51.022;7.082;2023-05-27T00:14:54;12.60;1.00
48328;DHT22;34136;51.022;7.082;2023-05-27T00:17:40;12.60;1.00
48328;DHT22;34136;51.022;7.082;2023-05-27T00:20:26;12.70;1.00
48328;DHT22;34136;51.022;7.082;2023-05-27T00:23:13;12.70;1.00
48328;DHT22;34136;51.022;7.082;2023-05-27T00:25:59;12.80;1.00
48328;DHT22;34136;51.022;7.082;2023-05-27T00:28:45;12.70;1.00
48328;DHT22;34136;51.022;7.082;2023-05-27T00:31:31;12.70;1.00
48328;DHT22;34136;51.022;7.082;2023-05-27T00:34:17;12.60;1.00
48328;DHT22;34136;51.022;7.082;2023-05-27T00:37:04;12.70;1.00
48328;DHT22;34136;51.022;7.082;2023-05-27T00:39:51;12.70;1.00
48328;DHT22;34136;51.022;7.082;2023-05-27T00:42:37;12.60;1.00
48328;DHT22;34136;51.022;7.082;2023-05-27T00:45:24;12.60;1.00
48328;DHT22;34136;51.022;7.082;2023-05-27T00:48:10;12.50;1.00
48328;DHT22;34136;51.022;7.082;2023-05-27T00:50:56;12.50;1.00
48328;DHT22;34136;51.022;7.082;2023-05-27T00:53:43;12.50;1.00
48328;DHT22;34136;51.022;7.082;2023-05-27T00:56:29;12.40;1.00
48328;DHT22;34136;51.022;7.082;2023-05-27T00:59:16;12.30;1.00
48328;DHT22;34136;51.022;7.082;2023-05-27T01:02:02;12.30;1.00
48328;DHT22;34136;51.022;7.082;2023-05-27T01:04:49;12.30;1.00
48328;DHT22;34136;51.022;7.082;2023-05-27T01:08:03;12.20;1.00
48328;DHT22;34136;51.022;7.082;2023-05-27T01:10:53;12.10;1.00
48328;DHT22;34136;51.022;7.082;2023-05-27T01:13:50;12.00;1.00
48328;DHT22;34136;51.022;7.082;2023-05-27T01:16:38;11.90;1.00
48328;DHT22;34136;51.022;7.082;2023-05-27T01:19:34;11.90;1.00
48328;DHT22;34136;51.022;7.082;2023-05-27T01:22:20;11.90;1.00
48328;DHT22;34136;51.022;7.082;2023-05-27T01:25:09;11.80;1.00
48328;DHT22;34136;51.022;7.082;2023-05-27T01:27:56;11.60;1.00
48328;DHT22;34136;51.022;7.082;2023-05-27T01:30:42;11.70;1.00
48328;DHT22;34136;51.022;7.082;2023-05-27T01:33:33;11.60;1.00
48328;DHT22;34136;51.022;7.082;2023-05-27T01:36:24;11.50;1.00
48328;DHT22;34136;51.022;7.082;2023-05-27T01:39:12;11.50;1.00
48328;DHT22;34136;51.022;7.082;2023-05-27T01:41:59;11.20;1.00
48328;DHT22;34136;51.022;7.082;2023-05-27T01:44:46;11.20;1.00
48328;DHT22;34136;51.022;7.082;2023-05-27T01:47:34;11.20;1.00
48328;DHT22;34136;51.022;7.082;2023-05-27T01:50:20;11.20;1.00
48328;DHT22;34136;51.022;7.082;2023-05-27T01:53:08;11.20;1.00
48328;DHT22;34136;51.022;7.082;2023-05-27T01:55:54;11.10;1.00
48328;DHT22;34136;51.022;7.082;2023-05-27T01:58:40;11.00;1.00
48328;DHT22;34136;51.022;7.082;2023-05-27T02:01:27;11.00;1.00
48328;DHT22;34136;51.022;7.082;2023-05-27T02:04:13;10.90;1.00
48328;DHT22;34136;51.022;7.082;2023-05-27T02:06:59;10.90;1.00
48328;DHT22;34136;51.022;7.082;2023-05-27T02:09:46;11.00;1.00
48328;DHT22;34136;51.022;7.082;2023-05-27T02:12:32;10.70;1.00
48328;DHT22;34136;51.022;7.082;2023-05-27T02:15:18;10.60;1.00
48328;DHT22;34136;51.022;7.082;2023-05-27T02:18:05;10.60;1.00
48328;DHT22;34136;51.022;7.082;2023-05-27T02:20:51;10.60;1.00
48328;DHT22;34136;51.022;7.082;2023-05-27T02:23:38;10.60;1.00
48328;DHT22;34136;51.022;7.082;2023-05-27T02:26:25;10.50;1.00
48328;DHT22;34136;51.022;7.082;2023-05-27T02:29:11;10.50;1.00
48328;DHT22;34136;51.022;7.082;2023-05-27T02:31:58;10.50;1.00
48328;DHT22;34136;51.022;7.082;2023-05-27T02:34:44;10.40;1.00
48328;DHT22;34136;51.022;7.082;2023-05-27T02:37:31;10.20;1.00
48328;DHT22;34136;51.022;7.082;2023-05-27T02:40:29;10.10;1.00
48328;DHT22;34136;51.022;7.082;2023-05-27T02:43:16;10.20;1.00
48328;DHT22;34136;51.022;7.082;2023-05-27T02:46:02;10.10;1.00
48328;DHT22;34136;51.022;7.082;2023-05-27T02:48:49;10.20;1.00
48328;DHT22;34136;51.022;7.082;2023-05-27T02:51:36;10.10;1.00
48328;DHT22;34136;51.022;7.082;2023-05-27T02:54:22;10.00;1.00
48328;DHT22;34136;51.022;7.082;2023-05-27T02:57:08;10.00;1.00
48328;DHT22;34136;51.022;7.082;2023-05-27T02:59:55;9.90;1.00
48328;DHT22;34136;51.022;7.082;2023-05-27T03:02:41;9.90;1.00
48328;DHT22;34136;51.022;7.082;2023-05-27T03:05:27;9.80;1.00
48328;DHT22;34136;51.022;7.082;2023-05-27T03:08:14;9.90;1.00
48328;DHT22;34136;51.022;7.082;2023-05-27T03:11:00;9.80;1.00
48328;DHT22;34136;51.022;7.082;2023-05-27T03:13:46;9.50;1.00
48328;DHT22;34136;51.022;7.082;2023-05-27T03:16:34;9.40;1.00
48328;DHT22;34136;51.022;7.082;2023-05-27T03:19:20;9.40;1.00
48328;DHT22;34136;51.022;7.082;2023-05-27T03:22:10;9.40;1.00
48328;DHT22;34136;51.022;7.082;2023-05-27T03:24:56;9.40;1.00
48328;DHT22;34136;51.022;7.082;2023-05-27T03:27:42;9.30;1.00
48328;DHT22;34136;51.022;7.082;2023-05-27T03:30:33;9.40;1.00
48328;DHT22;34136;51.022;7.082;2023-05-27T03:33:20;9.50;1.00
48328;DHT22;34136;51.022;7.082;2023-05-27T03:36:07;9.40;1.00
48328;DHT22;34136;51.022;7.082;2023-05-27T03:38:53;9.40;1.00
48328;DHT22;34136;51.022;7.082;2023-05-27T03:41:40;9.20;1.00
48328;DHT22;34136;51.022;7.082;2023-05-27T03:44:28;9.20;1.00
48328;DHT22;34136;51.022;7.082;2023-05-27T03:47:14;9.20;1.00
48328;DHT22;34136;51.022;7.082;2023-05-27T03:50:02;9.30;1.00
48328;DHT22;34136;51.022;7.082;2023-05-27T03:52:49;9.30;1.00
48328;DHT22;34136;51.022;7.082;2023-05-27T03:55:36;9.20;1.00
48328;DHT22;34136;51.022;7.082;2023-05-27T03:58:22;9.20;1.00
48328;DHT22;34136;51.022;7.082;2023-05-27T04:01:08;9.20;1.00
48328;DHT22;34136;51.022;7.082;2023-05-27T04:03:55;9.00;1.00
48328;DHT22;34136;51.022;7.082;2023-05-27T04:06:41;9.10;1.00
48328;DHT22;34136;51.022;7.082;2023-05-27T04:09:27;9.10;1.00
48328;DHT22;34136;51.022;7.082;2023-05-27T04:12:13;9.10;1.00
48328;DHT22;34136;51.022;7.082;2023-05-27T04:15:00;9.00;1.00
48328;DHT22;34136;51.022;7.082;2023-05-27T04:17:50;9.00;1.00
48328;DHT22;34136;51.022;7.082;2023-05-27T04:20:40;8.90;1.00
48328;DHT22;34136;51.022;7.082;2023-05-27T04:23:27;9.00;1.00
48328;DHT22;34136;51.022;7.082;2023-05-27T04:26:13;9.10;1.00
48328;DHT22;34136;51.022;7.082;2023-05-27T04:29:04;9.10;1.00
48328;DHT22;34136;51.022;7.082;2023-05-27T04:31:51;9.10;1.00
48328;DHT22;34136;51.022;7.082;2023-05-27T04:34:39;9.10;1.00
48328;DHT22;34136;51.022;7.082;2023-05-27T04:37:27;9.10;1.00
48328;DHT22;34136;51.022;7.082;2023-05-27T04:40:13;9.00;1.00
48328;DHT22;34136;51.022;7.082;2023-05-27T04:43:20;9.10;1.00
48328;DHT22;34136;51.022;7.082;2023-05-27T04:46:07;9.20;1.00
48328;DHT22;34136;51.022;7.082;2023-05-27T04:48:54;9.40;1.00
48328;DHT22;34136;51.022;7.082;2023-05-27T04:51:40;9.70;1.00
48328;DHT22;34136;51.022;7.082;2023-05-27T04:54:27;9.90;1.00
48328;DHT22;34136;51.022;7.082;2023-05-27T04:57:14;9.90;1.00
48328;DHT22;34136;51.022;7.082;2023-05-27T05:00:04;9.90;1.00
48328;DHT22;34136;51.022;7.082;2023-05-27T05:02:53;9.90;1.00
48328;DHT22;34136;51.022;7.082;2023-05-27T05:05:40;9.90;1.00
48328;DHT22;34136;51.022;7.082;2023-05-27T05:08:26;10.00;1.00
48328;DHT22;34136;51.022;7.082;2023-05-27T05:11:13;10.20;1.00
48328;DHT22;34136;51.022;7.082;2023-05-27T05:14:01;10.40;1.00
48328;DHT22;34136;51.022;7.082;2023-05-27T05:16:47;10.60;1.00
48328;DHT22;34136;51.022;7.082;2023-05-27T05:19:34;10.80;1.00
48328;DHT22;34136;51.022;7.082;2023-05-27T05:22:20;10.80;1.00
48328;DHT22;34136;51.022;7.082;2023-05-27T05:25:08;11.00;1.00
48328;DHT22;34136;51.022;7.082;2023-05-27T05:27:59;11.20;1.00
48328;DHT22;34136;51.022;7.082;2023-05-27T05:30:46;11.40;1.00
48328;DHT22;34136;51.022;7.082;2023-05-27T05:33:35;11.50;1.00
48328;DHT22;34136;51.022;7.082;2023-05-27T05:36:22;11.60;1.00
48328;DHT22;34136;51.022;7.082;2023-05-27T05:39:13;11.90;1.00
48328;DHT22;34136;51.022;7.082;2023-05-27T05:42:06;12.10;1.00
48328;DHT22;34136;51.022;7.082;2023-05-27T05:44:53;12.30;1.00
48328;DHT22;34136;51.022;7.082;2023-05-27T05:47:39;12.40;1.00
48328;DHT22;34136;51.022;7.082;2023-05-27T05:50:31;12.50;1.00
48328;DHT22;34136;51.022;7.082;2023-05-27T05:53:17;12.50;1.00
48328;DHT22;34136;51.022;7.082;2023-05-27T05:56:05;12.70;1.00
48328;DHT22;34136;51.022;7.082;2023-05-27T05:58:51;12.90;1.00
48328;DHT22;34136;51.022;7.082;2023-05-27T06:01:38;13.10;1.00
48328;DHT22;34136;51.022;7.082;2023-05-27T06:04:25;13.20;1.00
48328;DHT22;34136;51.022;7.082;2023-05-27T06:07:11;13.50;1.00
48328;DHT22;34136;51.022;7.082;2023-05-27T06:10:04;13.60;1.00
48328;DHT22;34136;51.022;7.082;2023-05-27T06:12:58;13.70;1.00
48328;DHT22;34136;51.022;7.082;2023-05-27T06:15:45;13.80;1.00
48328;DHT22;34136;51.022;7.082;2023-05-27T06:18:32;14.10;1.00
48328;DHT22;34136;51.022;7.082;2023-05-27T06:21:19;14.40;1.00
48328;DHT22;34136;51.022;7.082;2023-05-27T06:24:29;14.50;1.00
48328;DHT22;34136;51.022;7.082;2023-05-27T06:27:26;14.70;1.00
48328;DHT22;34136;51.022;7.082;2023-05-27T06:30:12;14.90;1.00
48328;DHT22;34136;51.022;7.082;2023-05-27T06:33:02;15.10;1.00
48328;DHT22;34136;51.022;7.082;2023-05-27T06:35:50;15.30;1.00
48328;DHT22;34136;51.022;7.082;2023-05-27T06:38:38;15.50;1.00
48328;DHT22;34136;51.022;7.082;2023-05-27T06:41:24;15.80;1.00
48328;DHT22;34136;51.022;7.082;2023-05-27T06:44:30;15.80;1.00
48328;DHT22;34136;51.022;7.082;2023-05-27T06:47:28;16.00;1.00
48328;DHT22;34136;51.022;7.082;2023-05-27T06:50:15;16.10;1.00
48328;DHT22;34136;51.022;7.082;2023-05-27T06:53:01;16.40;1.00
48328;DHT22;34136;51.022;7.082;2023-05-27T06:55:59;16.50;1.00
48328;DHT22;34136;51.022;7.082;2023-05-27T06:59:03;16.70;1.00
48328;DHT22;34136;51.022;7.082;2023-05-27T07:01:49;16.90;1.00
48328;DHT22;34136;51.022;7.082;2023-05-27T07:04:36;17.10;1.00
48328;DHT22;34136;51.022;7.082;2023-05-27T07:07:26;17.20;1.40
48328;DHT22;34136;51.022;7.082;2023-05-27T07:10:13;17.40;99.90
48328;DHT22;34136;51.022;7.082;2023-05-27T07:12:59;17.80;99.90
48328;DHT22;34136;51.022;7.082;2023-05-27T07:15:55;18.10;99.90
48328;DHT22;34136;51.022;7.082;2023-05-27T07:18:41;18.30;99.90
48328;DHT22;34136;51.022;7.082;2023-05-27T07:21:28;18.30;99.90
48328;DHT22;34136;51.022;7.082;2023-05-27T07:24:14;18.30;99.90
48328;DHT22;34136;51.022;7.082;2023-05-27T07:27:01;18.60;99.90
48328;DHT22;34136;51.022;7.082;2023-05-27T07:29:49;18.60;99.90
48328;DHT22;34136;51.022;7.082;2023-05-27T07:33:01;18.60;99.90
48328;DHT22;34136;51.022;7.082;2023-05-27T07:35:48;18.80;99.90
48328;DHT22;34136;51.022;7.082;2023-05-27T07:38:35;19.00;99.90
48328;DHT22;34136;51.022;7.082;2023-05-27T07:41:21;19.50;99.90
48328;DHT22;34136;51.022;7.082;2023-05-27T07:44:08;19.90;99.90
48328;DHT22;34136;51.022;7.082;2023-05-27T07:46:55;20.20;99.90
48328;DHT22;34136;51.022;7.082;2023-05-27T07:49:41;20.20;99.90
48328;DHT22;34136;51.022;7.082;2023-05-27T07:52:47;20.40;99.90
48328;DHT22;34136;51.022;7.082;2023-05-27T07:55:54;20.40;99.90
48328;DHT22;34136;51.022;7.082;2023-05-27T07:58:40;20.60;99.90
48328;DHT22;34136;51.022;7.082;2023-05-27T08:01:30;20.70;99.90
48328;DHT22;34136;51.022;7.082;2023-05-27T08:04:17;20.90;99.90
48328;DHT22;34136;51.022;7.082;2023-05-27T08:07:38;20.90;99.90
48328;DHT22;34136;51.022;7.082;2023-05-27T08:10:53;20.80;99.90
48328;DHT22;34136;51.022;7.082;2023-05-27T08:14:00;20.90;99.90
48328;DHT22;34136;51.022;7.082;2023-05-27T08:17:06;21.30;99.90
48328;DHT22;34136;51.022;7.082;2023-05-27T08:20:11;21.60;99.90
48328;DHT22;34136;51.022;7.082;2023-05-27T08:23:13;21.80;99.90
48328;DHT22;34136;51.022;7.082;2023-05-27T08:26:21;22.00;99.90
48328;DHT22;34136;51.022;7.082;2023-05-27T08:29:36;22.10;99.90
48328;DHT22;34136;51.022;7.082;2023-05-27T08:32:43;22.30;99.90
48328;DHT22;34136;51.022;7.082;2023-05-27T08:35:29;22.30;99.90
48328;DHT22;34136;51.022;7.082;2023-05-27T08:38:16;22.40;99.90
48328;DHT22;34136;51.022;7.082;2023-05-27T08:41:02;22.50;99.90
48328;DHT22;34136;51.022;7.082;2023-05-27T08:43:50;22.70;99.90
48328;DHT22;34136;51.022;7.082;2023-05-27T08:46:37;23.00;99.90
48328;DHT22;34136;51.022;7.082;2023-05-27T08:49:24;23.20;99.90
48328;DHT22;34136;51.022;7.082;2023-05-27T08:52:12;23.10;99.90
48328;DHT22;34136;51.022;7.082;2023-05-27T08:55:01;23.20;99.90
48328;DHT22;34136;51.022;7.082;2023-05-27T08:57:55;23.40;99.90
48328;DHT22;34136;51.022;7.082;2023-05-27T09:00:42;23.20;99.90
48328;DHT22;34136;51.022;7.082;2023-05-27T09:03:36;23.10;99.90
48328;DHT22;34136;51.022;7.082;2023-05-27T09:06:22;23.10;99.90
48328;DHT22;34136;51.022;7.082;2023-05-27T09:09:08;23.30;99.90
48328;DHT22;34136;51.022;7.082;2023-05-27T09:11:59;22.80;99.90
48328;DHT22;34136;51.022;7.082;2023-05-27T09:14:49;23.10;99.90
48328;DHT22;34136;51.022;7.082;2023-05-27T09:17:41;23.10;99.90
48328;DHT22;34136;51.022;7.082;2023-05-27T09:20:29;23.40;99.90
48328;DHT22;34136;51.022;7.082;2023-05-27T09:23:15;23.50;99.90
48328;DHT22;34136;51.022;7.082;2023-05-27T09:26:01;23.60;99.90
48328;DHT22;34136;51.022;7.082;2023-05-27T09:28:47;23.50;99.90
48328;DHT22;34136;51.022;7.082;2023-05-27T09:31:42;23.60;99.90
48328;DHT22;34136;51.022;7.082;2023-05-27T09:34:29;23.40;99.90
48328;DHT22;34136;51.022;7.082;2023-05-27T09:37:16;23.90;99.90
48328;DHT22;34136;51.022;7.082;2023-05-27T09:40:08;24.20;99.90
48328;DHT22;34136;51.022;7.082;2023-05-27T09:42:55;24.40;99.90
48328;DHT22;34136;51.022;7.082;2023-05-27T09:45:41;24.00;99.90
48328;DHT22;34136;51.022;7.082;2023-05-27T09:48:31;23.60;99.90
48328;DHT22;34136;51.022;7.082;2023-05-27T09:51:17;24.10;99.90
48328;DHT22;34136;51.022;7.082;2023-05-27T09:54:04;24.20;99.90
48328;DHT22;34136;51.022;7.082;2023-05-27T09:56:52;24.30;99.90
48328;DHT22;34136;51.022;7.082;2023-05-27T09:59:38;24.20;99.90
48328;DHT22;34136;51.022;7.082;2023-05-27T10:02:25;24.60;99.90
48328;DHT22;34136;51.022;7.082;2023-05-27T10:05:14;25.00;99.90
48328;DHT22;34136;51.022;7.082;2023-05-27T10:08:00;25.10;99.90
48328;DHT22;34136;51.022;7.082;2023-05-27T10:10:47;25.20;99.90
48328;DHT22;34136;51.022;7.082;2023-05-27T10:13:33;25.00;99.90
48328;DHT22;34136;51.022;7.082;2023-05-27T10:16:25;24.90;99.90
48328;DHT22;34136;51.022;7.082;2023-05-27T10:19:12;24.90;99.90
48328;DHT22;34136;51.022;7.082;2023-05-27T10:22:10;25.30;99.90
48328;DHT22;34136;51.022;7.082;2023-05-27T10:25:15;25.30;99.90
48328;DHT22;34136;51.022;7.082;2023-05-27T10:28:01;25.40;99.90
48328;DHT22;34136;51.022;7.082;2023-05-27T10:30:48;25.10;99.90
48328;DHT22;34136;51.022;7.082;2023-05-27T10:33:36;25.30;99.90
48328;DHT22;34136;51.022;7.082;2023-05-27T10:36:26;25.70;99.90
48328;DHT22;34136;51.022;7.082;2023-05-27T10:39:17;25.60;99.90
48328;DHT22;34136;51.022;7.082;2023-05-27T10:42:03;25.80;99.90
48328;DHT22;34136;51.022;7.082;2023-05-27T10:44:49;25.80;99.90
48328;DHT22;34136;51.022;7.082;2023-05-27T10:47:35;25.80;99.90
48328;DHT22;34136;51.022;7.082;2023-05-27T10:50:30;25.90;99.90
48328;DHT22;34136;51.022;7.082;2023-05-27T10:53:22;25.70;99.90
48328;DHT22;34136;51.022;7.082;2023-05-27T10:56:09;25.30;99.90
48328;DHT22;34136;51.022;7.082;2023-05-27T10:58:56;25.40;99.90
48328;DHT22;34136;51.022;7.082;2023-05-27T11:01:43;25.50;99.90
48328;DHT22;34136;51.022;7.082;2023-05-27T11:04:36;25.70;99.90
48328;DHT22;34136;51.022;7.082;2023-05-27T11:07:22;26.10;99.90
48328;DHT22;34136;51.022;7.082;2023-05-27T11:10:09;24.90;99.90
48328;DHT22;34136;51.022;7.082;2023-05-27T11:12:55;25.40;99.90
48328;DHT22;34136;51.022;7.082;2023-05-27T11:15:41;25.50;99.90
48328;DHT22;34136;51.022;7.082;2023-05-27T11:18:37;25.80;99.90
48328;DHT22;34136;51.022;7.082;2023-05-27T11:21:24;25.80;99.90
48328;DHT22;34136;51.022;7.082;2023-05-27T11:24:17;25.80;99.90
48328;DHT22;34136;51.022;7.082;2023-05-27T11:27:14;26.30;99.90
48328;DHT22;34136;51.022;7.082;2023-05-27T11:30:09;26.50;99.90
48328;DHT22;34136;51.022;7.082;2023-05-27T11:33:01;26.40;99.90
48328;DHT22;34136;51.022;7.082;2023-05-27T11:35:48;26.10;99.90
48328;DHT22;34136;51.022;7.082;2023-05-27T11:39:01;25.90;99.90
48328;DHT22;34136;51.022;7.082;2023-05-27T11:41:54;26.00;99.90
48328;DHT22;34136;51.022;7.082;2023-05-27T11:44:50;26.30;99.90
48328;DHT22;34136;51.022;7.082;2023-05-27T11:47:44;26.10;99.90
48328;DHT22;34136;51.022;7.082;2023-05-27T11:50:30;26.20;99.90
48328;DHT22;34136;51.022;7.082;2023-05-27T11:53:16;26.40;99.90
48328;DHT22;34136;51.022;7.082;2023-05-27T11:56:03;26.90;99.90
48328;DHT22;34136;51.022;7.082;2023-05-27T11:58:49;26.80;99.90
48328;DHT22;34136;51.022;7.082;2023-05-27T12:01:35;26.80;99.90
48328;DHT22;34136;51.022;7.082;2023-05-27T12:04:22;27.10;99.90
48328;DHT22;34136;51.022;7.082;2023-05-27T12:07:09;27.30;99.90
48328;DHT22;34136;51.022;7.082;2023-05-27T12:09:55;27.50;99.90
48328;DHT22;34136;51.022;7.082;2023-05-27T12:12:41;27.10;99.90
48328;DHT22;34136;51.022;7.082;2023-05-27T12:15:28;27.40;99.90
48328;DHT22;34136;51.022;7.082;2023-05-27T12:18:14;26.80;99.90
48328;DHT22;34136;51.022;7.082;2023-05-27T12:21:00;26.90;99.90
48328;DHT22;34136;51.022;7.082;2023-05-27T12:23:47;27.10;99.90
48328;DHT22;34136;51.022;7.082;2023-05-27T12:26:34;27.40;99.90
48328;DHT22;34136;51.022;7.082;2023-05-27T12:29:21;26.90;99.90
48328;DHT22;34136;51.022;7.082;2023-05-27T12:32:07;26.90;99.90
48328;DHT22;34136;51.022;7.082;2023-05-27T12:34:53;27.10;99.90
48328;DHT22;34136;51.022;7.082;2023-05-27T12:37:40;27.00;99.90
48328;DHT22;34136;51.022;7.082;2023-05-27T12:40:26;27.10;99.90
48328;DHT22;34136;51.022;7.082;2023-05-27T12:43:12;27.50;99.90
48328;DHT22;34136;51.022;7.082;2023-05-27T12:45:58;27.70;99.90
48328;DHT22;34136;51.022;7.082;2023-05-27T12:48:45;27.90;99.90
48328;DHT22;34136;51.022;7.082;2023-05-27T12:51:31;27.50;99.90
48328;DHT22;34136;51.022;7.082;2023-05-27T12:54:17;28.00;99.90
48328;DHT22;34136;51.022;7.082;2023-05-27T12:57:04;28.30;99.90
48328;DHT22;34136;51.022;7.082;2023-05-27T12:59:50;28.40;99.90
48328;DHT22;34136;51.022;7.082;2023-05-27T13:02:37;28.30;99.90
48328;DHT22;34136;51.022;7.082;2023-05-27T13:05:23;28.40;99.90
48328;DHT22;34136;51.022;7.082;2023-05-27T13:08:09;28.40;99.90
48328;DHT22;34136;51.022;7.082;2023-05-27T13:10:56;28.40;99.90
48328;DHT22;34136;51.022;7.082;2023-05-27T13:13:42;28.20;99.90
48328;DHT22;34136;51.022;7.082;2023-05-27T13:16:28;28.10;99.90
48328;DHT22;34136;51.022;7.082;2023-05-27T13:19:14;28.00;99.90
48328;DHT22;34136;51.022;7.082;2023-05-27T13:22:01;28.20;99.90
48328;DHT22;34136;51.022;7.082;2023-05-27T13:24:47;28.40;99.90
48328;DHT22;34136;51.022;7.082;2023-05-27T13:27:34;28.20;99.90
48328;DHT22;34136;51.022;7.082;2023-05-27T13:30:21;28.10;99.90
48328;DHT22;34136;51.022;7.082;2023-05-27T13:33:07;28.00;99.90
48328;DHT22;34136;51.022;7.082;2023-05-27T13:35:53;27.90;99.90
48328;DHT22;34136;51.022;7.082;2023-05-27T13:38:40;27.90;99.90
48328;DHT22;34136;51.022;7.082;2023-05-27T13:41:26;28.00;99.90
48328;DHT22;34136;51.022;7.082;2023-05-27T13:44:12;28.00;99.90
48328;DHT22;34136;51.022;7.082;2023-05-27T13:46:59;28.20;99.90
48328;DHT22;34136;51.022;7.082;2023-05-27T13:49:45;27.80;99.90
48328;DHT22;34136;51.022;7.082;2023-05-27T13:52:31;27.90;99.90
48328;DHT22;34136;51.022;7.082;2023-05-27T13:55:18;27.90;99.90
48328;DHT22;34136;51.022;7.082;2023-05-27T13:58:04;27.80;99.90
48328;DHT22;34136;51.022;7.082;2023-05-27T14:00:50;27.50;99.90
48328;DHT22;34136;51.022;7.082;2023-05-27T14:03:37;27.90;99.90
48328;DHT22;34136;51.022;7.082;2023-05-27T14:06:23;28.30;99.90
48328;DHT22;34136;51.022;7.082;2023-05-27T14:09:10;28.40;99.90
48328;DHT22;34136;51.022;7.082;2023-05-27T14:11:57;28.40;99.90
48328;DHT22;34136;51.022;7.082;2023-05-27T14:14:43;28.70;99.90
48328;DHT22;34136;51.022;7.082;2023-05-27T14:17:29;28.50;99.90
48328;DHT22;34136;51.022;7.082;2023-05-27T14:20:15;28.60;99.90
48328;DHT22;34136;51.022;7.082;2023-05-27T14:23:02;28.60;99.90
48328;DHT22;34136;51.022;7.082;2023-05-27T14:25:48;28.80;99.90
48328;DHT22;34136;51.022;7.082;2023-05-27T14:28:34;28.70;99.90
48328;DHT22;34136;51.022;7.082;2023-05-27T14:31:20;28.90;99.90
48328;DHT22;34136;51.022;7.082;2023-05-27T14:34:07;29.00;99.90
48328;DHT22;34136;51.022;7.082;2023-05-27T14:36:53;28.90;99.90
48328;DHT22;34136;51.022;7.082;2023-05-27T14:39:39;28.30;99.90
48328;DHT22;34136;51.022;7.082;2023-05-27T14:42:27;28.40;99.90
48328;DHT22;34136;51.022;7.082;2023-05-27T14:45:13;28.30;99.90
48328;DHT22;34136;51.022;7.082;2023-05-27T14:48:00;28.40;99.90
48328;DHT22;34136;51.022;7.082;2023-05-27T14:50:46;28.50;99.90
48328;DHT22;34136;51.022;7.082;2023-05-27T14:53:33;28.20;99.90
48328;DHT22;34136;51.022;7.082;2023-05-27T14:56:19;28.40;99.90
48328;DHT22;34136;51.022;7.082;2023-05-27T14:59:05;28.40;99.90
48328;DHT22;34136;51.022;7.082;2023-05-27T15:01:51;28.40;99.90
48328;DHT22;34136;51.022;7.082;2023-05-27T15:04:37;28.50;99.90
48328;DHT22;34136;51.022;7.082;2023-05-27T15:07:23;28.70;99.90
48328;DHT22;34136;51.022;7.082;2023-05-27T15:10:10;28.50;99.90
48328;DHT22;34136;51.022;7.082;2023-05-27T15:12:57;28.20;99.90
48328;DHT22;34136;51.022;7.082;2023-05-27T15:15:43;28.20;99.90
48328;DHT22;34136;51.022;7.082;2023-05-27T15:18:29;28.10;99.90
48328;DHT22;34136;51.022;7.082;2023-05-27T15:21:16;27.90;99.90
48328;DHT22;34136;51.022;7.082;2023-05-27T15:24:02;28.20;99.90
48328;DHT22;34136;51.022;7.082;2023-05-27T15:26:49;28.30;99.90
48328;DHT22;34136;51.022;7.082;2023-05-27T15:29:36;28.10;99.90
48328;DHT22;34136;51.022;7.082;2023-05-27T15:32:22;28.30;99.90
48328;DHT22;34136;51.022;7.082;2023-05-27T15:35:09;28.40;99.90
48328;DHT22;34136;51.022;7.082;2023-05-27T15:37:55;28.40;99.90
48328;DHT22;34136;51.022;7.082;2023-05-27T15:40:42;28.60;99.90
48328;DHT22;34136;51.022;7.082;2023-05-27T15:43:28;28.50;99.90
48328;DHT22;34136;51.022;7.082;2023-05-27T15:46:14;28.40;99.90
48328;DHT22;34136;51.022;7.082;2023-05-27T15:49:01;28.60;99.90
48328;DHT22;34136;51.022;7.082;2023-05-27T15:51:47;28.20;99.90
48328;DHT22;34136;51.022;7.082;2023-05-27T15:54:34;27.90;99.90
48328;DHT22;34136;51.022;7.082;2023-05-27T15:57:20;27.60;99.90
48328;DHT22;34136;51.022;7.082;2023-05-27T16:00:07;27.80;99.90
48328;DHT22;34136;51.022;7.082;2023-05-27T16:03:00;27.90;99.90
48328;DHT22;34136;51.022;7.082;2023-05-27T16:05:46;27.70;99.90
48328;DHT22;34136;51.022;7.082;2023-05-27T16:08:33;27.60;99.90
48328;DHT22;34136;51.022;7.082;2023-05-27T16:11:20;27.60;99.90
48328;DHT22;34136;51.022;7.082;2023-05-27T16:14:07;27.40;99.90
48328;DHT22;34136;51.022;7.082;2023-05-27T16:16:53;27.20;99.90
48328;DHT22;34136;51.022;7.082;2023-05-27T16:19:39;27.20;99.90
48328;DHT22;34136;51.022;7.082;2023-05-27T16:22:25;27.20;99.90
48328;DHT22;34136;51.022;7.082;2023-05-27T16:25:12;26.70;99.90
48328;DHT22;34136;51.022;7.082;2023-05-27T16:27:58;26.70;99.90
48328;DHT22;34136;51.022;7.082;2023-05-27T16:30:44;26.80;99.90
48328;DHT22;34136;51.022;7.082;2023-05-27T16:33:30;27.00;99.90
48328;DHT22;34136;51.022;7.082;2023-05-27T16:36:16;26.90;99.90
48328;DHT22;34136;51.022;7.082;2023-05-27T16:39:03;26.90;99.90
48328;DHT22;34136;51.022;7.082;2023-05-27T16:41:49;26.90;99.90
48328;DHT22;34136;51.022;7.082;2023-05-27T16:44:35;26.80;99.90
48328;DHT22;34136;51.022;7.082;2023-05-27T16:47:22;26.60;99.90
48328;DHT22;34136;51.022;7.082;2023-05-27T16:50:08;26.70;99.90
48328;DHT22;34136;51.022;7.082;2023-05-27T16:52:54;26.60;99.90
48328;DHT22;34136;51.022;7.082;2023-05-27T16:55:40;26.40;99.90
48328;DHT22;34136;51.022;7.082;2023-05-27T16:58:26;26.30;99.90
48328;DHT22;34136;51.022;7.082;2023-05-27T17:01:12;26.20;99.90
48328;DHT22;34136;51.022;7.082;2023-05-27T17:03:58;26.20;99.90
48328;DHT22;34136;51.022;7.082;2023-05-27T17:06:44;26.10;99.90
48328;DHT22;34136;51.022;7.082;2023-05-27T17:09:30;25.90;99.90
48328;DHT22;34136;51.022;7.082;2023-05-27T17:12:17;25.70;99.90
48328;DHT22;34136;51.022;7.082;2023-05-27T17:17:50;25.40;99.90
48328;DHT22;34136;51.022;7.082;2023-05-27T17:20:36;25.30;99.90
48328;DHT22;34136;51.022;7.082;2023-05-27T17:23:23;25.40;99.90
48328;DHT22;34136;51.022;7.082;2023-05-27T17:26:09;25.20;99.90
48328;DHT22;34136;51.022;7.082;2023-05-27T17:28:55;25.20;99.90
48328;DHT22;34136;51.022;7.082;2023-05-27T17:31:41;25.10;99.90
48328;DHT22;34136;51.022;7.082;2023-05-27T17:34:27;25.00;99.90
48328;DHT22;34136;51.022;7.082;2023-05-27T17:37:13;24.90;99.90
48328;DHT22;34136;51.022;7.082;2023-05-27T17:40:00;25.00;99.90
48328;DHT22;34136;51.022;7.082;2023-05-27T17:42:46;24.90;99.90
48328;DHT22;34136;51.022;7.082;2023-05-27T17:45:32;24.70;99.90
48328;DHT22;34136;51.022;7.082;2023-05-27T17:48:18;24.70;99.90
48328;DHT22;34136;51.022;7.082;2023-05-27T17:51:04;24.50;99.90
48328;DHT22;34136;51.022;7.082;2023-05-27T17:53:51;24.60;99.90
48328;DHT22;34136;51.022;7.082;2023-05-27T17:56:37;24.60;99.90